Time;durP1;ratioP1;P1;durP2;ratioP2;P2;SDS_P1;SDS_P2;PMS_P1;PMS_P2;Temp;Humidity;BMP_temperature;BMP_pressure;BME280_temperature;BME280_humidity;BME280_pressure;Samples;Min_cycle;Max_cycle;Signal;HPM_P1;HPM_P2
2023/04/08 00:02:51;;;;;;;;;;;;;;;17.17;33.62;95702.31;10540066;28;1967;-59
2023/04/08 00:07:52;;;;;;;;;;;;;;;17.16;33.60;95698.91;10535585;28;1484;-59
2023/04/08 00:12:54;;;;;;;;;;;;;;;17.15;33.63;95699.94;10538677;28;1460;-59
2023/04/08 00:17:55;;;;;;;;;;;;;;;17.16;33.45;95704.16;10531259;28;1476;-59
2023/04/08 00:22:56;;;;;;;;;;;;;;;17.16;33.55;95716.47;10531861;28;1918;-59
2023/04/08 00:27:57;;;;;;;;;;;;;;;17.15;33.53;95704.38;10529235;28;1420;-59
2023/04/08 00:32:58;;;;;;;;;;;;;;;17.14;33.52;95708.88;10537975;28;1107;-59
2023/04/08 00:37:58;;;;;;;;;;;;;;;17.14;33.55;95716.72;10532404;28;1464;-59
2023/04/08 00:42:59;;;;;;;;;;;;;;;17.14;33.48;95714.09;10531621;28;1922;-59
2023/04/08 00:48:00;;;;;;;;;;;;;;;17.12;33.50;95713.56;10525923;28;1445;-59
2023/04/08 00:53:01;;;;;;;;;;;;;;;17.13;33.43;95714.31;10519339;28;1210;-59
2023/04/08 00:58:01;;;;;;;;;;;;;;;17.13;33.63;95719.56;10531814;28;1444;-59
2023/04/08 01:03:04;;;;;;;;;;;;;;;17.12;33.41;95716.19;10518081;28;1890;-59
2023/04/08 01:08:05;;;;;;;;;;;;;;;17.12;33.40;95702.28;10531796;28;1440;-59
2023/04/08 01:13:08;;;;;;;;;;;;;;;17.09;33.34;95714.84;10530921;28;1420;-59
2023/04/08 01:18:09;;;;;;;;;;;;;;;17.10;33.47;95711.16;10491281;28;1374;-59
2023/04/08 01:23:29;;;;;;;;;;;;;;;17.09;33.40;95709.63;10529502;28;1901;-59
2023/04/08 01:28:30;;;;;;;;;;;;;;;17.09;33.44;95706.19;10490633;28;1475;-60
2023/04/08 01:33:31;;;;;;;;;;;;;;;17.07;33.23;95708.28;10533367;28;1481;-59
2023/04/08 01:38:31;;;;;;;;;;;;;;;17.08;33.45;95708.03;10527091;28;1071;-59
2023/04/08 01:43:33;;;;;;;;;;;;;;;17.08;33.44;95708.03;10496244;28;1913;-59
2023/04/08 01:48:34;;;;;;;;;;;;;;;17.07;33.29;95706.47;10531040;28;1444;-59
2023/04/08 01:53:34;;;;;;;;;;;;;;;17.06;33.31;95706.72;10529232;28;1289;-59
2023/04/08 01:58:36;;;;;;;;;;;;;;;17.06;33.37;95709.34;10507749;28;1436;-60
2023/04/08 02:03:37;;;;;;;;;;;;;;;17.05;33.31;95708.53;10537237;28;1983;-59
2023/04/08 02:08:37;;;;;;;;;;;;;;;17.06;33.30;95714.56;10497824;28;1702;-59
2023/04/08 02:13:37;;;;;;;;;;;;;;;17.06;33.33;95711.94;10512307;28;1705;-59
2023/04/08 02:18:45;;;;;;;;;;;;;;;17.04;33.27;95714.81;10526479;28;1111;-59
2023/04/08 02:23:48;;;;;;;;;;;;;;;17.04;33.32;95708.78;10518352;28;1906;-59
2023/04/08 02:28:49;;;;;;;;;;;;;;;17.04;33.35;95711.41;10523094;28;1366;-59
2023/04/08 02:33:49;;;;;;;;;;;;;;;17.04;33.33;95709.56;10515809;28;1103;-59
2023/04/08 02:38:49;;;;;;;;;;;;;;;17.04;33.24;95716.66;10512898;28;1480;-60
2023/04/08 02:43:54;;;;;;;;;;;;;;;17.03;33.28;95709.81;10521675;28;1960;-59
2023/04/08 02:48:55;;;;;;;;;;;;;;;17.02;33.24;95708.25;10538740;28;1507;-59
2023/04/08 02:54:05;;;;;;;;;;;;;;;17.01;33.32;95710.09;10543072;28;1150;-59
2023/04/08 02:59:06;;;;;;;;;;;;;;;17.02;33.29;95708.25;10532254;28;1647;-60
2023/04/08 03:04:07;;;;;;;;;;;;;;;17.02;33.22;95714.25;10546043;28;1981;-59
2023/04/08 03:09:08;;;;;;;;;;;;;;;17.02;33.34;95710.88;10513928;28;1460;-59
2023/04/08 03:14:08;;;;;;;;;;;;;;;17.01;33.14;95719.75;10535854;28;1685;-59
2023/04/08 03:19:08;;;;;;;;;;;;;;;17.01;33.25;95717.16;10503904;28;1531;-60
2023/04/08 03:24:10;;;;;;;;;;;;;;;17.00;33.26;95720.81;10528708;28;1981;-59
2023/04/08 03:29:10;;;;;;;;;;;;;;;16.99;33.14;95714.78;10537627;28;1539;-59
2023/04/08 03:34:10;;;;;;;;;;;;;;;16.98;33.13;95723.66;10540041;28;1087;-59
2023/04/08 03:39:11;;;;;;;;;;;;;;;16.98;33.11;95722.91;10530823;28;1432;-59
2023/04/08 03:44:12;;;;;;;;;;;;;;;16.98;33.20;95728.13;10521713;28;1973;-60
2023/04/08 03:49:13;;;;;;;;;;;;;;;16.97;33.17;95729.16;10536135;28;1504;-59
2023/04/08 03:54:14;;;;;;;;;;;;;;;16.97;33.13;95726.53;10539173;28;1182;-59
2023/04/08 03:59:14;;;;;;;;;;;;;;;16.97;33.17;95726.53;10523743;28;1405;-59
2023/04/08 04:04:15;;;;;;;;;;;;;;;16.95;33.22;95734.66;10538872;28;1960;-60
2023/04/08 04:09:15;;;;;;;;;;;;;;;16.96;33.22;95735.44;10516711;28;1488;-59
2023/04/08 04:14:16;;;;;;;;;;;;;;;16.96;33.14;95745.94;10534048;28;1016;-60
2023/04/08 04:19:17;;;;;;;;;;;;;;;16.94;33.25;95756.63;10518116;28;1407;-59
2023/04/08 04:24:17;;;;;;;;;;;;;;;16.94;33.13;95755.84;10528338;28;1910;-59
2023/04/08 04:29:17;;;;;;;;;;;;;;;16.93;33.13;95765.53;10530521;28;1562;-59
2023/04/08 04:34:18;;;;;;;;;;;;;;;16.93;33.15;95757.69;10544847;28;1087;-59
2023/04/08 04:39:18;;;;;;;;;;;;;;;16.92;33.16;95765.75;10535712;28;1502;-59
2023/04/08 04:44:18;;;;;;;;;;;;;;;16.93;33.18;95772.59;10535898;28;1910;-59
2023/04/08 04:49:19;;;;;;;;;;;;;;;16.92;33.20;95776.22;10532364;28;1440;-59
2023/04/08 04:54:19;;;;;;;;;;;;;;;16.92;33.19;95781.47;10527458;28;1477;-59
2023/04/08 04:59:20;;;;;;;;;;;;;;;16.91;33.23;95779.91;10536613;28;1039;-59
2023/04/08 05:04:20;;;;;;;;;;;;;;;16.91;33.20;95774.66;10525938;28;1905;-59
2023/04/08 05:09:20;;;;;;;;;;;;;;;16.90;33.11;95773.88;10515058;28;1400;-60
2023/04/08 05:14:21;;;;;;;;;;;;;;;16.91;33.16;95779.91;10534121;28;1085;-59
2023/04/08 05:19:23;;;;;;;;;;;;;;;16.90;33.14;95789.59;10522442;28;1425;-59
2023/04/08 05:24:23;;;;;;;;;;;;;;;16.90;33.15;95783.56;10528800;28;1972;-59
2023/04/08 05:29:25;;;;;;;;;;;;;;;16.89;33.08;95784.59;10527992;28;1464;-60
2023/04/08 05:34:25;;;;;;;;;;;;;;;16.90;33.14;95788.78;10535251;28;1067;-59
2023/04/08 05:39:26;;;;;;;;;;;;;;;16.88;33.14;95783.00;10528023;28;1523;-59
2023/04/08 05:44:26;;;;;;;;;;;;;;;16.87;33.17;95782.25;10535100;28;1906;-60
2023/04/08 05:49:26;;;;;;;;;;;;;;;16.89;33.12;95789.84;10534069;28;1503;-60
2023/04/08 05:54:27;;;;;;;;;;;;;;;16.85;33.10;95783.53;10525593;28;1417;-60
2023/04/08 05:59:28;;;;;;;;;;;;;;;16.87;33.15;95790.09;10508879;28;1115;-59
2023/04/08 06:04:29;;;;;;;;;;;;;;;16.88;33.20;95790.88;10528335;28;1894;-59
2023/04/08 06:09:39;;;;;;;;;;;;;;;16.88;33.35;95803.97;10511529;28;1662;-59
2023/04/08 06:14:39;;;;;;;;;;;;;;;16.87;33.23;95805.00;10534144;28;1158;-59
2023/04/08 06:19:40;;;;;;;;;;;;;;;16.86;33.21;95812.06;10514956;28;1393;-59
2023/04/08 06:24:41;;;;;;;;;;;;;;;16.85;33.29;95807.88;10527889;28;1911;-59
2023/04/08 06:29:42;;;;;;;;;;;;;;;16.86;33.42;95808.66;10530170;28;1515;-59
2023/04/08 06:34:46;;;;;;;;;;;;;;;16.87;33.37;95820.72;10530617;28;1491;-59
2023/04/08 06:39:47;;;;;;;;;;;;;;;16.85;33.44;95814.94;10499579;28;1516;-59
2023/04/08 06:44:48;;;;;;;;;;;;;;;16.85;33.44;95822.78;10533716;28;1977;-59
2023/04/08 06:49:48;;;;;;;;;;;;;;;16.85;33.36;95823.59;10519298;28;1405;-59
2023/04/08 06:54:48;;;;;;;;;;;;;;;16.84;33.33;95826.44;10521583;28;1429;-60
2023/04/08 06:59:49;;;;;;;;;;;;;;;16.84;33.49;95829.84;10523883;28;1508;-59
2023/04/08 07:04:49;;;;;;;;;;;;;;;16.84;33.39;95837.72;10514726;28;1969;-59
2023/04/08 07:09:50;;;;;;;;;;;;;;;16.85;33.29;95841.13;10507378;28;1432;-59
2023/04/08 07:14:51;;;;;;;;;;;;;;;16.84;33.38;95842.13;10533397;28;1024;-59
2023/04/08 07:19:53;;;;;;;;;;;;;;;16.83;33.39;95849.22;10527365;28;1527;-59
2023/04/08 07:24:54;;;;;;;;;;;;;;;16.84;33.42;95853.41;10527453;28;1914;-59
2023/04/08 07:30:04;;;;;;;;;;;;;;;16.83;33.43;95862.31;10533946;28;1161;-59
2023/04/08 07:35:05;;;;;;;;;;;;;;;16.84;33.39;95866.50;10535832;28;1516;-58
2023/04/08 07:40:06;;;;;;;;;;;;;;;16.83;33.47;95870.19;10535641;28;1460;-60
2023/04/08 07:45:07;;;;;;;;;;;;;;;16.83;33.47;95872.78;10540107;28;1918;-60
2023/04/08 07:50:08;;;;;;;;;;;;;;;16.83;33.45;95872.78;10530876;28;1488;-60
2023/04/08 07:55:09;;;;;;;;;;;;;;;16.83;33.42;95866.75;10529323;28;1461;-60
2023/04/08 08:00:10;;;;;;;;;;;;;;;16.82;33.56;95867.78;10504591;28;1392;-59
2023/04/08 08:05:11;;;;;;;;;;;;;;;16.83;33.38;95870.19;10539268;28;1914;-60
2023/04/08 08:10:12;;;;;;;;;;;;;;;16.81;33.44;95872.25;10514151;28;1503;-58
2023/04/08 08:15:13;;;;;;;;;;;;;;;16.81;33.49;95879.31;10538887;28;1098;-60
2023/04/08 08:20:15;;;;;;;;;;;;;;;16.82;33.54;95880.88;10521155;28;1467;-60
2023/04/08 08:25:16;;;;;;;;;;;;;;;16.81;33.48;95877.47;10531999;28;1979;-60
2023/04/08 08:30:18;;;;;;;;;;;;;;;16.81;33.48;95879.31;10525343;28;1364;-60
2023/04/08 08:35:18;;;;;;;;;;;;;;;16.81;33.38;95887.16;10531507;28;1416;-60
2023/04/08 08:40:29;;;;;;;;;;;;;;;16.81;33.50;95895.00;10532662;28;1429;-60
2023/04/08 08:45:32;;;;;;;;;;;;;;;16.80;33.37;95901.25;10521800;28;1971;-60
2023/04/08 08:50:33;;;;;;;;;;;;;;;16.79;33.44;95897.88;10508801;28;1488;-60
2023/04/08 08:55:34;;;;;;;;;;;;;;;16.78;33.43;95909.38;10528112;28;1626;-60
2023/04/08 09:00:39;;;;;;;;;;;;;;;16.79;33.34;95908.34;10537153;28;1138;-60
2023/04/08 09:05:47;;;;;;;;;;;;;;;16.79;33.40;95910.97;10523623;28;1902;-60
2023/04/08 09:10:47;;;;;;;;;;;;;;;16.80;33.47;95924.81;10523269;28;1471;-60
2023/04/08 09:16:04;;;;;;;;;;;;;;;16.79;33.43;95923.25;10536519;28;1098;-60
2023/04/08 09:21:05;;;;;;;;;;;;;;;16.79;33.35;95913.59;10524144;28;1432;-60
2023/04/08 09:26:12;;;;;;;;;;;;;;;16.78;33.44;95916.44;10530255;28;1975;-60
2023/04/08 09:31:22;;;;;;;;;;;;;;;16.78;33.37;95919.03;10528010;28;1373;-60
2023/04/08 09:36:23;;;;;;;;;;;;;;;16.78;33.36;95919.03;10540107;28;1186;-60
2023/04/08 09:41:23;;;;;;;;;;;;;;;16.78;33.30;95919.03;10528654;28;1910;-60
2023/04/08 09:46:28;;;;;;;;;;;;;;;16.77;33.38;95920.09;10520269;28;1201;-60
2023/04/08 09:51:32;;;;;;;;;;;;;;;16.76;33.27;95919.31;10517496;28;1483;-60
2023/04/08 09:56:35;;;;;;;;;;;;;;;16.75;33.39;95912.50;10515838;28;1421;-60
2023/04/08 10:01:39;;;;;;;;;;;;;;;16.77;33.41;95915.66;10523766;28;1882;-60
2023/04/08 10:06:39;;;;;;;;;;;;;;;16.76;33.36;95910.66;10506255;28;1417;-60
2023/04/08 10:11:40;;;;;;;;;;;;;;;16.76;33.24;95913.28;10532673;28;1503;-60
2023/04/08 10:16:40;;;;;;;;;;;;;;;16.78;33.27;95916.44;10515933;28;1151;-60
2023/04/08 10:21:49;;;;;;;;;;;;;;;16.76;33.39;95919.31;10515271;28;1985;-60
2023/04/08 10:26:50;;;;;;;;;;;;;;;16.76;33.49;95913.28;10528532;28;1127;-60
2023/04/08 10:31:51;;;;;;;;;;;;;;;16.75;33.53;95909.88;10502890;28;1450;-59
2023/04/08 10:36:54;;;;;;;;;;;;;;;16.76;33.49;95918.50;10534426;28;1158;-60
2023/04/08 10:41:55;;;;;;;;;;;;;;;16.75;33.59;95907.25;10519852;28;1960;-60
2023/04/08 10:46:56;;;;;;;;;;;;;;;16.74;33.58;95910.09;10532583;28;1481;-60
2023/04/08 10:52:07;;;;;;;;;;;;;;;16.74;33.43;95910.91;10528372;28;1377;-60
2023/04/08 10:57:07;;;;;;;;;;;;;;;16.75;33.49;95911.69;10524392;28;1452;-59
2023/04/08 11:02:12;;;;;;;;;;;;;;;16.75;33.57;95916.94;10537436;28;1963;-60
2023/04/08 11:07:13;;;;;;;;;;;;;;;16.74;33.45;95917.97;10539493;28;1131;-60
2023/04/08 11:12:15;;;;;;;;;;;;;;;16.73;33.40;95919.78;10536605;28;1440;-60
2023/04/08 11:17:16;;;;;;;;;;;;;;;16.73;33.47;95921.63;10522774;28;1103;-60
2023/04/08 11:22:17;;;;;;;;;;;;;;;16.72;33.48;95923.44;10532123;28;1909;-60
2023/04/08 11:27:17;;;;;;;;;;;;;;;16.72;33.39;95926.06;10506245;28;1429;-60
2023/04/08 11:32:18;;;;;;;;;;;;;;;16.72;33.48;95933.91;10519204;28;1171;-60
2023/04/08 11:37:19;;;;;;;;;;;;;;;16.72;33.30;95926.06;10522845;28;1460;-60
2023/04/08 11:42:29;;;;;;;;;;;;;;;16.72;33.33;95930.50;10534939;28;1960;-60
2023/04/08 11:47:30;;;;;;;;;;;;;;;16.71;33.40;95929.69;10522598;28;1020;-60
2023/04/08 11:52:41;;;;;;;;;;;;;;;16.71;33.49;95924.47;10512908;28;1519;-59
2023/04/08 11:57:41;;;;;;;;;;;;;;;16.71;33.49;95929.69;10537042;28;1440;-59
2023/04/08 12:02:42;;;;;;;;;;;;;;;16.70;33.48;95935.19;10526371;28;1961;-59
2023/04/08 12:07:42;;;;;;;;;;;;;;;16.71;33.39;95934.16;10509762;28;1432;-59
2023/04/08 12:12:44;;;;;;;;;;;;;;;16.71;33.49;95952.50;10527027;28;1452;-59
2023/04/08 12:17:44;;;;;;;;;;;;;;;16.70;33.48;95950.91;10532104;28;1500;-60
2023/04/08 12:22:45;;;;;;;;;;;;;;;16.69;33.54;95949.31;10532789;28;1914;-59
2023/04/08 12:27:45;;;;;;;;;;;;;;;16.69;33.58;95955.31;10527477;28;1444;-60
2023/04/08 12:32:46;;;;;;;;;;;;;;;16.69;33.55;95955.31;10537839;28;1086;-60
2023/04/08 12:37:47;;;;;;;;;;;;;;;16.70;33.60;95951.69;10524571;28;1496;-60
2023/04/08 12:42:57;;;;;;;;;;;;;;;16.69;33.52;95960.56;10522957;28;1886;-59
2023/04/08 12:47:58;;;;;;;;;;;;;;;16.69;33.57;95967.66;10539348;28;1441;-60
2023/04/08 12:52:58;;;;;;;;;;;;;;;16.69;33.54;95965.78;10540762;28;1379;-60
2023/04/08 12:57:59;;;;;;;;;;;;;;;16.68;33.62;95966.06;10528282;28;1448;-60
2023/04/08 13:03:00;;;;;;;;;;;;;;;16.67;33.65;95969.72;10518973;28;1971;-60
2023/04/08 13:08:01;;;;;;;;;;;;;;;16.68;33.54;95968.66;10520165;28;1469;-60
2023/04/08 13:13:01;;;;;;;;;;;;;;;16.66;33.59;95970.75;10531489;28;1487;-60
2023/04/08 13:18:02;;;;;;;;;;;;;;;16.67;33.54;95967.09;10509989;28;1650;-60
2023/04/08 13:23:02;;;;;;;;;;;;;;;16.67;33.49;95972.34;10501880;28;2441;-60
2023/04/08 13:28:03;;;;;;;;;;;;;;;16.66;33.55;95968.13;10533267;28;1052;-60
2023/04/08 13:33:04;;;;;;;;;;;;;;;16.65;33.41;95975.16;10519790;28;1473;-60
2023/04/08 13:38:04;;;;;;;;;;;;;;;16.65;33.36;95975.16;10519571;28;1569;-61
2023/04/08 13:43:05;;;;;;;;;;;;;;;16.65;33.37;95987.50;10530349;28;1967;-60
2023/04/08 13:48:06;;;;;;;;;;;;;;;16.64;33.50;95975.41;10535686;28;1095;-60
2023/04/08 13:53:06;;;;;;;;;;;;;;;16.63;33.45;95981.72;10529105;28;1535;-60
2023/04/08 13:58:07;;;;;;;;;;;;;;;16.63;33.42;95986.94;10524853;28;1422;-60
2023/04/08 14:03:07;;;;;;;;;;;;;;;16.63;33.35;95986.94;10534424;28;1902;-60
2023/04/08 14:08:08;;;;;;;;;;;;;;;16.62;33.54;95983.53;10527817;28;1499;-59
2023/04/08 14:13:08;;;;;;;;;;;;;;;16.63;33.52;95989.56;10523800;28;1421;-60
2023/04/08 14:18:08;;;;;;;;;;;;;;;16.62;33.43;95988.75;10523893;28;1626;-60
2023/04/08 14:23:12;;;;;;;;;;;;;;;16.61;33.42;95989.00;10504339;28;2302;-60
2023/04/08 14:28:13;;;;;;;;;;;;;;;16.61;33.50;95995.00;10532556;28;1155;-60
2023/04/08 14:33:13;;;;;;;;;;;;;;;16.60;33.43;95985.59;10529670;28;1520;-59
2023/04/08 14:38:14;;;;;;;;;;;;;;;16.61;33.36;95991.63;10528193;28;1066;-60
2023/04/08 14:43:15;;;;;;;;;;;;;;;16.59;33.27;95996.31;10522675;28;1968;-60
2023/04/08 14:48:15;;;;;;;;;;;;;;;16.60;33.29;96000.50;10525670;28;1518;-61
2023/04/08 14:53:16;;;;;;;;;;;;;;;16.59;33.34;96007.56;10533989;28;1098;-60
2023/04/08 14:58:18;;;;;;;;;;;;;;;16.59;33.31;96006.78;10528752;28;1453;-61
2023/04/08 15:03:19;;;;;;;;;;;;;;;16.57;33.31;96008.84;10528429;28;1983;-60
2023/04/08 15:08:19;;;;;;;;;;;;;;;16.58;33.33;96011.22;10531332;28;1143;-60
2023/04/08 15:13:20;;;;;;;;;;;;;;;16.59;33.09;96014.63;10527966;28;1436;-60
2023/04/08 15:18:20;;;;;;;;;;;;;;;16.58;33.20;96020.88;10517871;28;1448;-60
2023/04/08 15:23:20;;;;;;;;;;;;;;;16.58;33.27;96026.13;10518809;28;1918;-60
2023/04/08 15:28:21;;;;;;;;;;;;;;;16.57;33.36;96014.09;10535478;28;1353;-60
2023/04/08 15:33:21;;;;;;;;;;;;;;;16.56;33.24;96018.50;10535347;28;1102;-60
2023/04/08 15:38:22;;;;;;;;;;;;;;;16.56;33.24;96022.94;10528123;28;1425;-59
2023/04/08 15:43:23;;;;;;;;;;;;;;;16.56;33.29;96025.56;10528926;28;1988;-60
2023/04/08 15:48:23;;;;;;;;;;;;;;;16.56;33.25;96025.56;10519692;28;1203;-61
2023/04/08 15:53:23;;;;;;;;;;;;;;;16.56;33.16;96028.19;10530387;28;1650;-61
2023/04/08 15:58:24;;;;;;;;;;;;;;;16.55;33.04;96031.84;10535394;28;1642;-61
2023/04/08 16:03:24;;;;;;;;;;;;;;;16.54;33.27;96038.91;10539602;28;1929;-60
2023/04/08 16:08:25;;;;;;;;;;;;;;;16.54;33.17;96046.75;10531669;28;1441;-60
2023/04/08 16:13:28;;;;;;;;;;;;;;;16.54;33.17;96048.56;10533916;28;1489;-60
2023/04/08 16:18:29;;;;;;;;;;;;;;;16.53;33.19;96055.63;10513057;28;1205;-60
2023/04/08 16:23:29;;;;;;;;;;;;;;;16.53;33.27;96057.44;10510613;28;1919;-61
2023/04/08 16:28:31;;;;;;;;;;;;;;;16.53;33.13;96057.44;10530419;28;1548;-60
2023/04/08 16:33:32;;;;;;;;;;;;;;;16.53;33.20;96063.47;10519305;28;1479;-60
2023/04/08 16:38:37;;;;;;;;;;;;;;;16.53;33.26;96060.06;10542181;28;1055;-60
2023/04/08 16:43:37;;;;;;;;;;;;;;;16.52;33.29;96063.72;10532731;28;1963;-61
2023/04/08 16:48:38;;;;;;;;;;;;;;;16.52;33.19;96068.94;10535242;28;1436;-61
2023/04/08 16:53:38;;;;;;;;;;;;;;;16.52;33.20;96074.97;10530575;28;1171;-60
2023/04/08 16:58:39;;;;;;;;;;;;;;;16.51;33.25;96069.97;10518481;28;1802;-60
2023/04/08 17:03:40;;;;;;;;;;;;;;;16.51;33.26;96073.38;10519920;28;1976;-60
2023/04/08 17:08:44;;;;;;;;;;;;;;;16.50;33.21;96071.81;10519638;28;1496;-61
2023/04/08 17:13:44;;;;;;;;;;;;;;;16.50;33.26;96073.63;10515496;28;1618;-60
2023/04/08 17:18:45;;;;;;;;;;;;;;;16.50;33.20;96076.25;10527947;28;1441;-60
2023/04/08 17:23:45;;;;;;;;;;;;;;;16.50;33.09;96081.47;10532803;28;1968;-60
2023/04/08 17:28:46;;;;;;;;;;;;;;;16.50;33.24;96081.47;10533053;28;1697;-60
2023/04/08 17:33:46;;;;;;;;;;;;;;;16.49;33.19;96085.91;10535553;28;1122;-60
2023/04/08 17:38:48;;;;;;;;;;;;;;;16.49;33.15;96090.31;10538324;28;1654;-60
2023/04/08 17:43:49;;;;;;;;;;;;;;;16.51;33.28;96101.38;10511987;28;1913;-60
2023/04/08 17:48:50;;;;;;;;;;;;;;;16.49;33.21;96111.25;10528523;28;1488;-60
2023/04/08 17:53:51;;;;;;;;;;;;;;;16.48;33.29;96105.25;10535986;28;1126;-60
2023/04/08 17:58:52;;;;;;;;;;;;;;;16.47;33.22;96108.88;10528665;28;1439;-60
2023/04/08 18:03:53;;;;;;;;;;;;;;;16.49;33.20;96113.88;10534841;28;1902;-60
2023/04/08 18:08:53;;;;;;;;;;;;;;;16.48;33.12;96120.16;10530194;28;1515;-60
2023/04/08 18:13:54;;;;;;;;;;;;;;;16.45;33.21;96116.19;10537782;28;1709;-60
2023/04/08 18:18:54;;;;;;;;;;;;;;;16.46;33.08;96128.25;10526411;28;1448;-60
2023/04/08 18:23:55;;;;;;;;;;;;;;;16.45;33.22;96139.72;10528338;28;1910;-60
2023/04/08 18:28:56;;;;;;;;;;;;;;;16.46;33.14;96143.16;10520684;28;1526;-60
2023/04/08 18:33:56;;;;;;;;;;;;;;;16.46;33.12;96151.00;10526732;28;1472;-61
2023/04/08 18:38:56;;;;;;;;;;;;;;;16.44;33.14;96156.47;10530566;28;1431;-60
2023/04/08 18:44:02;;;;;;;;;;;;;;;16.46;33.04;96157.03;10530583;28;1902;-60
2023/04/08 18:49:03;;;;;;;;;;;;;;;16.45;33.11;96167.72;10527406;28;1611;-60
2023/04/08 18:54:04;;;;;;;;;;;;;;;16.44;33.14;96168.75;10533227;28;1091;-60
2023/04/08 18:59:15;;;;;;;;;;;;;;;16.45;33.16;96172.94;10529017;28;1504;-60
2023/04/08 19:04:17;;;;;;;;;;;;;;;16.44;33.14;96177.41;10533349;28;1909;-60
2023/04/08 19:09:17;;;;;;;;;;;;;;;16.44;33.08;96187.88;10524431;28;1373;-60
2023/04/08 19:14:17;;;;;;;;;;;;;;;16.44;33.12;96190.50;10529999;28;1042;-60
2023/04/08 19:19:17;;;;;;;;;;;;;;;16.43;33.09;96188.09;10524414;28;1540;-60
2023/04/08 19:24:19;;;;;;;;;;;;;;;16.43;33.08;96198.56;10533548;28;1918;-60
2023/04/08 19:29:22;;;;;;;;;;;;;;;16.41;33.08;96190.94;10525502;28;1607;-60
2023/04/08 19:34:22;;;;;;;;;;;;;;;16.43;32.97;96195.94;10524822;28;1559;-60
2023/04/08 19:39:23;;;;;;;;;;;;;;;16.42;33.06;96203.00;10537600;28;1439;-60
2023/04/08 19:44:23;;;;;;;;;;;;;;;16.41;33.20;96198.78;10537870;28;1913;-60
2023/04/08 19:49:23;;;;;;;;;;;;;;;16.42;33.11;96199.59;10501073;28;1531;-60
2023/04/08 19:54:24;;;;;;;;;;;;;;;16.41;33.07;96203.22;10539036;28;1170;-60
2023/04/08 19:59:25;;;;;;;;;;;;;;;16.40;33.13;96202.47;10528498;28;1523;-60
2023/04/08 20:04:25;;;;;;;;;;;;;;;16.40;33.03;96207.69;10539450;28;1976;-60
2023/04/08 20:09:26;;;;;;;;;;;;;;;16.41;33.04;96203.22;10519977;28;1420;-60
2023/04/08 20:14:27;;;;;;;;;;;;;;;16.40;33.07;96209.50;10537189;28;1195;-60
2023/04/08 20:19:27;;;;;;;;;;;;;;;16.39;33.08;96210.50;10519122;28;1405;-60
2023/04/08 20:24:37;;;;;;;;;;;;;;;16.39;33.11;96208.69;10517580;28;1917;-60
2023/04/08 20:29:38;;;;;;;;;;;;;;;16.38;33.08;96209.75;10532938;28;1512;-60
2023/04/08 20:34:38;;;;;;;;;;;;;;;16.39;33.12;96210.50;10515120;28;1634;-60
2023/04/08 20:39:39;;;;;;;;;;;;;;;16.37;33.09;96212.56;10533917;28;1464;-60
2023/04/08 20:44:39;;;;;;;;;;;;;;;16.38;33.10;96214.97;10538089;28;1918;-60
2023/04/08 20:49:41;;;;;;;;;;;;;;;16.38;33.15;96214.19;10530300;28;1491;-60
2023/04/08 20:54:41;;;;;;;;;;;;;;;16.38;33.11;96220.22;10537247;28;1130;-60
2023/04/08 20:59:42;;;;;;;;;;;;;;;16.37;33.07;96216.00;10535731;28;1499;-60
2023/04/08 21:04:44;;;;;;;;;;;;;;;16.37;33.11;96213.38;10538286;28;1910;-60
2023/04/08 21:09:47;;;;;;;;;;;;;;;16.37;33.13;96217.81;10529596;28;1484;-60
2023/04/08 21:14:49;;;;;;;;;;;;;;;16.37;33.20;96230.88;10536490;28;1102;-60
2023/04/08 21:19:50;;;;;;;;;;;;;;;16.36;33.02;96221.47;10518859;28;1456;-60
2023/04/08 21:24:52;;;;;;;;;;;;;;;16.35;33.14;96225.09;10526138;28;1918;-60
2023/04/08 21:29:52;;;;;;;;;;;;;;;16.36;33.18;96230.13;10525796;28;1096;-60
2023/04/08 21:34:53;;;;;;;;;;;;;;;16.35;33.11;96225.91;10531489;28;1476;-60
2023/04/08 21:39:53;;;;;;;;;;;;;;;16.35;33.12;96230.34;10525345;28;1409;-60
2023/04/08 21:44:54;;;;;;;;;;;;;;;16.35;33.22;96230.34;10517301;28;1918;-60
2023/04/08 21:49:55;;;;;;;;;;;;;;;16.35;33.13;96230.34;10531400;28;1468;-60
2023/04/08 21:54:56;;;;;;;;;;;;;;;16.35;33.09;96230.34;10535710;28;1107;-60
2023/04/08 21:59:57;;;;;;;;;;;;;;;16.34;33.09;96231.38;10530391;28;1488;-60
2023/04/08 22:04:58;;;;;;;;;;;;;;;16.32;33.03;96231.63;10539264;28;1886;-59
2023/04/08 22:09:59;;;;;;;;;;;;;;;16.34;33.03;96239.22;10519911;28;1578;-60
2023/04/08 22:14:59;;;;;;;;;;;;;;;16.34;33.18;96231.38;10534841;28;1102;-60
2023/04/08 22:19:59;;;;;;;;;;;;;;;16.32;33.04;96234.22;10507175;28;1483;-60
2023/04/08 22:25:01;;;;;;;;;;;;;;;16.32;32.97;96236.06;10527696;28;1911;-60
2023/04/08 22:30:01;;;;;;;;;;;;;;;16.33;33.00;96233.19;10522673;28;1440;-60
2023/04/08 22:35:02;;;;;;;;;;;;;;;16.32;33.20;96236.06;10510647;28;1756;-60
2023/04/08 22:40:02;;;;;;;;;;;;;;;16.29;33.12;96230.25;10524314;28;1574;-60
2023/04/08 22:45:03;;;;;;;;;;;;;;;16.31;33.11;96237.88;10515494;28;1994;-60
2023/04/08 22:50:05;;;;;;;;;;;;;;;16.31;33.13;96240.47;10524218;28;1468;-60
2023/04/08 22:55:05;;;;;;;;;;;;;;;16.28;33.11;96233.88;10516848;28;1079;-60
2023/04/08 23:00:06;;;;;;;;;;;;;;;16.29;33.16;96235.50;10533108;28;1377;-59
2023/04/08 23:05:07;;;;;;;;;;;;;;;16.30;33.14;96233.66;10514098;28;1906;-60
2023/04/08 23:10:08;;;;;;;;;;;;;;;16.28;33.14;96228.66;10536608;28;1448;-60
2023/04/08 23:15:08;;;;;;;;;;;;;;;16.30;33.14;96238.88;10541404;28;1087;-60
2023/04/08 23:20:09;;;;;;;;;;;;;;;16.28;33.12;96228.66;10488697;28;1519;-60
2023/04/08 23:25:10;;;;;;;;;;;;;;;16.28;33.13;96233.88;10516500;28;1905;-60
2023/04/08 23:30:11;;;;;;;;;;;;;;;16.27;33.01;96240.16;10526778;28;1499;-60
2023/04/08 23:35:12;;;;;;;;;;;;;;;16.27;33.07;96232.31;10536279;28;1948;-60
2023/04/08 23:40:13;;;;;;;;;;;;;;;16.28;33.08;96238.31;10535355;28;1445;-60
2023/04/08 23:45:14;;;;;;;;;;;;;;;16.26;33.08;96246.41;10549273;28;1961;-60
2023/04/08 23:50:14;;;;;;;;;;;;;;;16.26;33.02;96248.22;10527990;28;1464;-60
2023/04/08 23:55:15;;;;;;;;;;;;;;;16.25;33.11;96242.22;10543381;28;1142;-60
